Time;durP1;ratioP1;P1;durP2;ratioP2;P2;SDS_P1;SDS_P2;PMS_P1;PMS_P2;Temp;Humidity;BMP_temperature;BMP_pressure;BME280_temperature;BME280_humidity;BME280_pressure;Samples;Min_cycle;Max_cycle;Signal;HPM_P1;HPM_P2
2022/11/08 00:01:49;;;;;;;10.95;2.17;;;;;;;;;;5025431;28;20136;-79
2022/11/08 00:04:16;;;;;;;11.55;2.50;;;;;;;;;;5026313;28;20058;-80
2022/11/08 00:15:01;;;;;;;7.55;2.10;;;;;;;;;;5025403;28;20048;-79
2022/11/08 00:17:29;;;;;;;6.28;1.98;;;;;;;;;;5026406;28;20077;-79
2022/11/08 00:19:55;;;;;;;11.02;2.17;;;;;;;;;;5025282;28;20089;-79
2022/11/08 00:22:22;;;;;;;15.43;2.78;;;;;;;;;;5026957;28;20096;-79
2022/11/08 00:24:50;;;;;;;11.55;2.35;;;;;;;;;;5010643;28;20057;-79
2022/11/08 00:27:18;;;;;;;7.93;2.15;;;;;;;;;;5029938;28;20090;-79
2022/11/08 00:29:45;;;;;;;12.23;2.58;;;;;;;;;;5010906;28;20088;-79
2022/11/08 00:32:13;;;;;;;12.52;2.85;;;;;;;;;;5028413;28;20077;-79
2022/11/08 00:34:40;;;;;;;10.70;2.47;;;;;;;;;;5028877;28;20145;-78
2022/11/08 00:37:06;;;;;;;10.57;2.45;;;;;;;;;;5029112;28;20054;-80
2022/11/08 00:39:33;;;;;;;11.88;2.42;;;;;;;;;;5028294;28;20042;-80
2022/11/08 00:41:59;;;;;;;8.60;2.03;;;;;;;;;;5011222;28;20092;-79
2022/11/08 00:44:26;;;;;;;13.57;3.17;;;;;;;;;;5029264;28;20058;-80
2022/11/08 00:46:52;;;;;;;8.45;2.10;;;;;;;;;;5011134;28;20174;-80
2022/11/08 00:49:19;;;;;;;9.32;2.10;;;;;;;;;;5027315;28;20509;-79
2022/11/08 00:51:45;;;;;;;9.50;2.03;;;;;;;;;;5028509;28;20249;-79
2022/11/08 00:54:13;;;;;;;9.07;2.35;;;;;;;;;;5028912;28;20169;-79
2022/11/08 00:56:39;;;;;;;11.30;2.28;;;;;;;;;;5011749;28;20121;-79
2022/11/08 00:59:06;;;;;;;11.70;2.20;;;;;;;;;;5010572;28;20516;-80
2022/11/08 01:01:32;;;;;;;8.18;2.10;;;;;;;;;;5011997;28;20093;-80
2022/11/08 01:03:59;;;;;;;13.18;2.53;;;;;;;;;;5008864;28;20799;-80
2022/11/08 01:06:25;;;;;;;9.43;2.13;;;;;;;;;;5027815;28;20101;-79
2022/11/08 01:08:53;;;;;;;12.00;2.72;;;;;;;;;;5007388;28;20108;-79
2022/11/08 01:11:21;;;;;;;9.55;2.42;;;;;;;;;;5027904;28;20054;-79
2022/11/08 01:13:47;;;;;;;12.13;2.40;;;;;;;;;;5029271;28;20053;-80
2022/11/08 01:16:16;;;;;;;8.60;2.40;;;;;;;;;;5010396;28;20053;-80
2022/11/08 01:18:42;;;;;;;9.13;2.53;;;;;;;;;;5030121;28;20037;-79
2022/11/08 01:21:09;;;;;;;11.18;2.60;;;;;;;;;;5028993;28;20054;-80
2022/11/08 01:23:35;;;;;;;9.82;2.30;;;;;;;;;;5007669;28;20061;-79
2022/11/08 01:26:04;;;;;;;14.30;2.45;;;;;;;;;;5010914;28;20054;-80
2022/11/08 01:28:31;;;;;;;11.85;2.88;;;;;;;;;;5024216;28;20060;-79
2022/11/08 01:31:01;;;;;;;9.15;2.55;;;;;;;;;;5007476;28;20543;-79
2022/11/08 01:33:27;;;;;;;10.90;2.58;;;;;;;;;;5024010;28;20038;-80
2022/11/08 01:35:53;;;;;;;12.20;2.55;;;;;;;;;;5011378;28;20050;-80
2022/11/08 01:38:20;;;;;;;11.00;3.38;;;;;;;;;;5010954;28;20050;-80
2022/11/08 01:40:47;;;;;;;10.40;2.60;;;;;;;;;;5027496;28;20112;-79
2022/11/08 01:43:25;;;;;;;9.07;2.47;;;;;;;;;;5027520;28;20089;-79
2022/11/08 01:46:09;;;;;;;9.07;2.30;;;;;;;;;;5028824;28;20058;-79
2022/11/08 01:48:48;;;;;;;12.15;2.63;;;;;;;;;;5020783;28;20061;-79
2022/11/08 01:51:16;;;;;;;11.93;3.05;;;;;;;;;;5029016;28;20570;-79
2022/11/08 01:53:43;;;;;;;13.70;2.75;;;;;;;;;;5027588;28;20061;-79
2022/11/08 01:56:14;;;;;;;7.53;2.80;;;;;;;;;;5016989;28;20046;-80
2022/11/08 01:58:42;;;;;;;8.52;3.20;;;;;;;;;;5006775;28;20436;-81
2022/11/08 02:01:08;;;;;;;11.60;3.15;;;;;;;;;;5027109;28;20042;-80
2022/11/08 02:03:35;;;;;;;8.30;2.75;;;;;;;;;;5010179;28;20882;-79
2022/11/08 02:06:02;;;;;;;11.05;2.90;;;;;;;;;;5011150;28;20551;-80
2022/11/08 02:08:41;;;;;;;12.57;3.78;;;;;;;;;;5023236;28;20054;-80
2022/11/08 02:11:09;;;;;;;9.80;2.70;;;;;;;;;;5025428;28;20456;-80
2022/11/08 02:13:37;;;;;;;11.98;2.92;;;;;;;;;;5025887;28;20058;-79
2022/11/08 02:16:09;;;;;;;12.80;2.85;;;;;;;;;;4990904;28;20054;-80
2022/11/08 02:18:35;;;;;;;13.65;2.40;;;;;;;;;;5014832;28;20092;-80
2022/11/08 02:21:01;;;;;;;10.68;2.88;;;;;;;;;;5011211;28;20496;-79
2022/11/08 02:23:43;;;;;;;16.25;2.75;;;;;;;;;;5002501;28;20141;-79
2022/11/08 02:26:10;;;;;;;7.88;2.25;;;;;;;;;;5012000;28;20053;-79
2022/11/08 02:28:37;;;;;;;10.63;2.33;;;;;;;;;;5024645;28;20886;-79
2022/11/08 02:31:03;;;;;;;20.70;2.88;;;;;;;;;;5026656;28;20054;-80
2022/11/08 02:33:31;;;;;;;8.45;2.50;;;;;;;;;;5027558;28;20050;-79
2022/11/08 02:35:57;;;;;;;9.68;3.47;;;;;;;;;;5026733;28;20058;-80
2022/11/08 02:38:24;;;;;;;11.27;2.72;;;;;;;;;;5005822;28;20563;-80
2022/11/08 02:40:51;;;;;;;12.00;2.75;;;;;;;;;;5004557;28;20052;-80
2022/11/08 02:43:18;;;;;;;7.63;2.60;;;;;;;;;;5037515;28;20064;-80
2022/11/08 02:45:45;;;;;;;8.48;2.75;;;;;;;;;;5027751;28;20057;-80
2022/11/08 02:48:11;;;;;;;8.13;2.95;;;;;;;;;;5014041;28;20064;-80
2022/11/08 02:50:38;;;;;;;8.98;2.83;;;;;;;;;;5015441;28;20152;-79
2022/11/08 02:53:05;;;;;;;10.02;2.90;;;;;;;;;;5013995;28;20041;-80
2022/11/08 02:55:32;;;;;;;9.27;2.80;;;;;;;;;;5013969;28;20038;-78
2022/11/08 02:57:58;;;;;;;11.65;3.25;;;;;;;;;;5010936;28;20891;-80
2022/11/08 03:00:25;;;;;;;9.07;2.83;;;;;;;;;;5025327;28;20520;-80
2022/11/08 03:02:51;;;;;;;9.07;2.85;;;;;;;;;;5007088;28;20058;-79
2022/11/08 03:05:18;;;;;;;11.98;2.80;;;;;;;;;;5025569;28;20053;-79
2022/11/08 03:07:44;;;;;;;14.20;2.95;;;;;;;;;;5007796;28;20061;-79
2022/11/08 03:10:10;;;;;;;12.35;2.92;;;;;;;;;;5025235;28;20064;-79
2022/11/08 03:12:37;;;;;;;11.35;3.78;;;;;;;;;;5017418;28;20532;-79
2022/11/08 03:15:04;;;;;;;11.55;2.90;;;;;;;;;;5005789;28;21394;-79
2022/11/08 03:17:31;;;;;;;11.05;2.70;;;;;;;;;;5030582;28;20045;-80
2022/11/08 03:19:57;;;;;;;9.50;3.17;;;;;;;;;;5004483;28;20062;-79
2022/11/08 03:22:23;;;;;;;8.68;2.80;;;;;;;;;;4987897;28;20062;-79
2022/11/08 03:24:49;;;;;;;7.80;2.95;;;;;;;;;;5002452;28;20073;-79
2022/11/08 03:27:18;;;;;;;13.52;3.28;;;;;;;;;;5003444;28;20053;-79
2022/11/08 03:29:44;;;;;;;9.98;2.83;;;;;;;;;;5012289;28;20054;-79
2022/11/08 03:32:11;;;;;;;8.88;2.15;;;;;;;;;;5024224;28;20053;-79
2022/11/08 03:34:37;;;;;;;9.48;2.42;;;;;;;;;;5025493;28;20084;-79
2022/11/08 03:37:04;;;;;;;10.25;2.65;;;;;;;;;;5006375;28;20524;-80
2022/11/08 03:39:31;;;;;;;7.20;2.20;;;;;;;;;;5024714;28;20038;-80
2022/11/08 03:42:01;;;;;;;7.18;2.70;;;;;;;;;;5006836;28;20080;-79
2022/11/08 03:44:28;;;;;;;6.65;2.30;;;;;;;;;;5006222;28;20112;-79
2022/11/08 03:46:54;;;;;;;10.18;2.30;;;;;;;;;;5007544;28;20069;-79
2022/11/08 03:49:21;;;;;;;7.05;2.40;;;;;;;;;;4995572;28;20057;-78
2022/11/08 03:51:47;;;;;;;13.73;2.72;;;;;;;;;;4998103;28;20061;-80
2022/11/08 03:54:13;;;;;;;11.25;2.63;;;;;;;;;;5024632;28;20061;-79
2022/11/08 03:56:40;;;;;;;7.90;2.28;;;;;;;;;;5006004;28;20054;-79
2022/11/08 03:59:06;;;;;;;6.82;2.30;;;;;;;;;;5006315;28;20046;-80
2022/11/08 04:01:32;;;;;;;10.73;2.50;;;;;;;;;;5023864;28;20515;-79
2022/11/08 04:03:59;;;;;;;9.48;2.53;;;;;;;;;;5005267;28;20069;-79
2022/11/08 04:06:25;;;;;;;8.02;2.95;;;;;;;;;;5006833;28;20061;-79
2022/11/08 04:08:56;;;;;;;8.50;2.90;;;;;;;;;;5011098;28;20151;-79
2022/11/08 04:16:53;;;;;;;8.52;2.45;;;;;;;;;;5024627;28;20068;-79
2022/11/08 04:22:05;;;;;;;9.07;2.30;;;;;;;;;;5023383;28;20495;-79
2022/11/08 04:24:31;;;;;;;7.07;2.03;;;;;;;;;;5022655;28;20053;-78
2022/11/08 04:26:58;;;;;;;10.73;2.13;;;;;;;;;;5024145;28;20061;-78
2022/11/08 04:29:24;;;;;;;9.05;2.17;;;;;;;;;;5005799;28;20053;-78
2022/11/08 04:31:51;;;;;;;9.10;2.63;;;;;;;;;;5023391;28;20064;-78
2022/11/08 04:34:17;;;;;;;8.35;2.10;;;;;;;;;;4999386;28;20057;-80
2022/11/08 04:36:43;;;;;;;11.20;2.65;;;;;;;;;;5015144;28;20582;-79
2022/11/08 04:39:09;;;;;;;8.43;2.10;;;;;;;;;;5002058;28;20058;-79
2022/11/08 04:41:36;;;;;;;6.38;1.80;;;;;;;;;;5005361;28;20050;-78
2022/11/08 04:44:02;;;;;;;11.07;2.83;;;;;;;;;;5043936;28;20088;-79
2022/11/08 04:46:29;;;;;;;8.38;2.13;;;;;;;;;;5015707;28;20140;-78
2022/11/08 04:48:57;;;;;;;9.25;2.38;;;;;;;;;;5003132;28;20496;-79
2022/11/08 04:51:27;;;;;;;7.13;2.15;;;;;;;;;;5024161;28;20062;-78
2022/11/08 04:53:55;;;;;;;6.38;2.03;;;;;;;;;;5024014;28;20050;-78
2022/11/08 04:56:22;;;;;;;8.02;2.28;;;;;;;;;;5024221;28;20058;-78
2022/11/08 04:58:49;;;;;;;6.15;1.90;;;;;;;;;;5024700;28;20511;-80
2022/11/08 05:01:17;;;;;;;7.97;2.03;;;;;;;;;;5012731;28;20054;-79
2022/11/08 05:03:44;;;;;;;7.75;2.20;;;;;;;;;;5022704;28;20100;-78
2022/11/08 05:06:14;;;;;;;7.80;2.30;;;;;;;;;;5019116;28;20054;-78
2022/11/08 05:08:41;;;;;;;6.93;2.30;;;;;;;;;;5014836;28;20516;-79
2022/11/08 05:11:09;;;;;;;9.18;2.53;;;;;;;;;;5009476;28;20061;-78
2022/11/08 05:13:35;;;;;;;7.53;2.20;;;;;;;;;;5027596;28;20058;-80
2022/11/08 05:16:06;;;;;;;8.07;2.03;;;;;;;;;;5008399;28;20054;-78
2022/11/08 05:18:33;;;;;;;6.78;1.75;;;;;;;;;;5027147;28;20057;-78
2022/11/08 05:23:46;;;;;;;7.65;2.60;;;;;;;;;;5026709;28;20062;-80
2022/11/08 05:26:13;;;;;;;6.63;1.70;;;;;;;;;;5007661;28;21141;-78
2022/11/08 05:28:39;;;;;;;9.18;2.10;;;;;;;;;;5009417;28;20076;-78
2022/11/08 05:31:06;;;;;;;5.85;1.92;;;;;;;;;;5009702;28;20053;-79
2022/11/08 05:33:32;;;;;;;6.03;1.92;;;;;;;;;;5015684;28;20053;-81
2022/11/08 05:36:06;;;;;;;9.05;1.90;;;;;;;;;;5011019;28;20050;-79
2022/11/08 05:38:33;;;;;;;6.90;1.88;;;;;;;;;;5008547;28;20449;-78
2022/11/08 05:41:03;;;;;;;6.00;1.60;;;;;;;;;;5029201;28;20061;-80
2022/11/08 05:43:29;;;;;;;6.38;2.08;;;;;;;;;;5032972;28;20056;-79
2022/11/08 05:45:55;;;;;;;5.85;1.90;;;;;;;;;;5012663;28;20057;-80
2022/11/08 05:48:22;;;;;;;7.28;1.90;;;;;;;;;;5029025;28;21130;-80
2022/11/08 05:50:48;;;;;;;7.70;1.90;;;;;;;;;;5027720;28;20108;-79
2022/11/08 05:53:15;;;;;;;5.95;1.80;;;;;;;;;;5026877;28;20054;-79
2022/11/08 05:55:41;;;;;;;7.78;1.90;;;;;;;;;;5025072;28;20061;-79
2022/11/08 05:58:08;;;;;;;5.57;1.88;;;;;;;;;;5027317;28;20062;-79
2022/11/08 06:00:34;;;;;;;7.57;2.38;;;;;;;;;;5011241;28;20112;-78
2022/11/08 06:03:01;;;;;;;7.53;2.22;;;;;;;;;;5027431;28;20057;-79
2022/11/08 06:05:28;;;;;;;6.90;2.17;;;;;;;;;;5026992;28;20492;-79
2022/11/08 06:07:54;;;;;;;9.60;2.50;;;;;;;;;;5029105;28;20062;-80
2022/11/08 06:10:20;;;;;;;9.02;2.63;;;;;;;;;;5008838;28;20057;-79
2022/11/08 06:12:47;;;;;;;8.07;2.03;;;;;;;;;;5009474;28;20056;-78
2022/11/08 06:15:13;;;;;;;7.30;2.33;;;;;;;;;;5022062;28;20058;-78
2022/11/08 06:17:40;;;;;;;9.23;2.53;;;;;;;;;;5010019;28;20062;-78
2022/11/08 06:20:11;;;;;;;7.38;2.20;;;;;;;;;;5007360;28;20054;-78
2022/11/08 06:22:38;;;;;;;10.05;2.70;;;;;;;;;;5024611;28;20085;-78
2022/11/08 06:25:04;;;;;;;6.82;2.03;;;;;;;;;;5007617;28;20042;-78
2022/11/08 06:27:30;;;;;;;5.78;2.28;;;;;;;;;;5008558;28;20061;-80
2022/11/08 06:29:57;;;;;;;7.72;2.20;;;;;;;;;;5008301;28;20058;-80
2022/11/08 06:32:23;;;;;;;6.63;2.05;;;;;;;;;;5025378;28;20102;-80
2022/11/08 06:34:49;;;;;;;7.93;2.00;;;;;;;;;;5026455;28;20054;-78
2022/11/08 06:37:16;;;;;;;9.30;2.30;;;;;;;;;;5008033;28;20511;-79
2022/11/08 06:39:43;;;;;;;6.50;1.80;;;;;;;;;;5009505;28;20042;-79
2022/11/08 06:42:09;;;;;;;7.30;2.00;;;;;;;;;;5027684;28;20057;-79
2022/11/08 06:44:36;;;;;;;7.30;3.00;;;;;;;;;;5026483;28;20041;-80
2022/11/08 06:47:02;;;;;;;7.50;2.10;;;;;;;;;;5008498;28;20495;-79
2022/11/08 06:49:28;;;;;;;8.20;1.90;;;;;;;;;;5026898;28;20057;-78
2022/11/08 06:51:54;;;;;;;5.45;1.92;;;;;;;;;;5008659;28;20054;-79
2022/11/08 06:54:21;;;;;;;5.80;2.10;;;;;;;;;;5008849;28;20073;-78
2022/11/08 06:56:54;;;;;;;;;;;;;;;;;;5010488;28;21340;-79
2022/11/08 06:59:21;;;;;;;5.45;1.70;;;;;;;;;;5025010;28;46145;-79
2022/11/08 07:01:48;;;;;;;5.00;1.80;;;;;;;;;;5009929;28;20068;-78
2022/11/08 07:04:14;;;;;;;4.75;1.65;;;;;;;;;;5008597;28;20112;-80
2022/11/08 07:06:40;;;;;;;7.80;2.20;;;;;;;;;;5023243;28;20053;-79
2022/11/08 07:09:07;;;;;;;5.93;1.90;;;;;;;;;;5024193;28;20061;-79
2022/11/08 07:11:34;;;;;;;7.53;1.98;;;;;;;;;;5006528;28;20177;-78
2022/11/08 07:14:00;;;;;;;6.57;2.00;;;;;;;;;;5006836;28;20054;-78
2022/11/08 07:16:26;;;;;;;5.25;1.90;;;;;;;;;;5025191;28;20061;-78
2022/11/08 07:18:54;;;;;;;5.30;2.15;;;;;;;;;;5026408;28;20050;-79
2022/11/08 07:21:21;;;;;;;5.75;1.80;;;;;;;;;;5009508;28;20571;-78
2022/11/08 07:23:47;;;;;;;5.47;2.08;;;;;;;;;;5003676;28;20077;-78
2022/11/08 07:26:14;;;;;;;6.35;2.22;;;;;;;;;;4993141;28;20062;-79
2022/11/08 07:28:40;;;;;;;6.07;2.40;;;;;;;;;;5024561;28;20054;-79
2022/11/08 07:31:07;;;;;;;6.85;1.98;;;;;;;;;;5025190;28;20050;-79
2022/11/08 07:33:34;;;;;;;5.53;2.10;;;;;;;;;;5009002;28;20050;-79
2022/11/08 07:36:00;;;;;;;8.95;2.40;;;;;;;;;;5008392;28;20065;-80
2022/11/08 07:38:26;;;;;;;6.55;2.92;;;;;;;;;;5003764;28;20050;-80
2022/11/08 07:40:57;;;;;;;6.53;2.22;;;;;;;;;;5008873;28;20065;-80
2022/11/08 07:43:23;;;;;;;5.60;2.08;;;;;;;;;;5025740;28;20058;-80
2022/11/08 07:45:55;;;;;;;5.05;2.10;;;;;;;;;;5009546;28;20480;-78
2022/11/08 07:48:21;;;;;;;6.32;2.30;;;;;;;;;;5027096;28;20819;-79
2022/11/08 07:50:47;;;;;;;5.10;2.00;;;;;;;;;;5044208;28;20034;-79
2022/11/08 07:53:14;;;;;;;4.43;2.00;;;;;;;;;;5007101;28;20057;-80
2022/11/08 07:55:41;;;;;;;5.90;2.15;;;;;;;;;;5009252;28;20120;-80
2022/11/08 07:58:08;;;;;;;4.93;1.80;;;;;;;;;;5007524;28;20420;-80
2022/11/08 08:00:35;;;;;;;7.35;2.00;;;;;;;;;;5008097;28;20053;-80
2022/11/08 08:03:03;;;;;;;5.57;1.90;;;;;;;;;;5006568;28;20054;-80
2022/11/08 08:05:32;;;;;;;5.88;2.08;;;;;;;;;;5025912;28;20055;-79
2022/11/08 08:07:59;;;;;;;6.43;1.80;;;;;;;;;;5006638;28;20064;-80
2022/11/08 08:10:26;;;;;;;5.72;1.80;;;;;;;;;;5007700;28;20054;-80
2022/11/08 08:12:53;;;;;;;7.20;2.03;;;;;;;;;;5023135;28;20117;-79
2022/11/08 08:15:20;;;;;;;6.05;2.00;;;;;;;;;;4997987;28;20058;-80
2022/11/08 08:17:46;;;;;;;8.10;1.90;;;;;;;;;;5004621;28;20058;-79
2022/11/08 08:20:13;;;;;;;4.97;1.73;;;;;;;;;;5006511;28;20065;-79
2022/11/08 08:22:45;;;;;;;5.47;2.35;;;;;;;;;;5005755;28;20062;-78
2022/11/08 08:25:11;;;;;;;4.22;1.92;;;;;;;;;;4986932;28;20540;-79
2022/11/08 08:27:37;;;;;;;7.85;2.03;;;;;;;;;;4999724;28;20062;-80
2022/11/08 08:30:04;;;;;;;5.88;1.73;;;;;;;;;;5014207;28;20057;-79
2022/11/08 08:32:30;;;;;;;5.65;1.90;;;;;;;;;;5002002;28;20061;-79
2022/11/08 08:34:57;;;;;;;5.13;2.00;;;;;;;;;;5005715;28;20053;-79
2022/11/08 08:37:23;;;;;;;5.88;2.00;;;;;;;;;;5001467;28;20050;-79
2022/11/08 08:39:49;;;;;;;5.57;1.83;;;;;;;;;;5000846;28;20523;-79
2022/11/08 08:42:16;;;;;;;6.88;1.70;;;;;;;;;;5022381;28;20064;-79
2022/11/08 08:44:42;;;;;;;8.23;2.25;;;;;;;;;;5001636;28;20057;-78
2022/11/08 08:47:09;;;;;;;4.80;2.00;;;;;;;;;;5009158;28;20707;-79
2022/11/08 08:49:35;;;;;;;6.35;2.08;;;;;;;;;;5027286;28;20169;-79
2022/11/08 08:52:01;;;;;;;6.20;1.98;;;;;;;;;;5008053;28;20058;-79
2022/11/08 08:54:28;;;;;;;4.55;1.85;;;;;;;;;;5026992;28;20065;-79
2022/11/08 08:56:55;;;;;;;4.50;1.60;;;;;;;;;;5009065;28;20050;-79
2022/11/08 08:59:21;;;;;;;6.57;2.00;;;;;;;;;;5024875;28;20057;-79
2022/11/08 09:02:08;;;;;;;6.03;2.10;;;;;;;;;;5024799;28;20057;-79
2022/11/08 09:04:34;;;;;;;5.35;1.63;;;;;;;;;;5007069;28;20057;-79
2022/11/08 09:07:01;;;;;;;12.18;3.42;;;;;;;;;;5024695;28;20062;-79
2022/11/08 09:09:27;;;;;;;5.10;1.90;;;;;;;;;;5026647;28;20065;-78
2022/11/08 09:11:53;;;;;;;4.93;1.80;;;;;;;;;;5024382;28;20042;-79
2022/11/08 09:14:19;;;;;;;5.13;1.83;;;;;;;;;;5029948;28;20057;-79
2022/11/08 09:16:46;;;;;;;10.38;1.90;;;;;;;;;;5009662;28;20057;-78
2022/11/08 09:19:12;;;;;;;7.00;2.20;;;;;;;;;;5005268;28;20058;-79
2022/11/08 09:21:38;;;;;;;8.13;2.25;;;;;;;;;;5006788;28;20788;-79
2022/11/08 09:24:05;;;;;;;4.25;1.60;;;;;;;;;;5014474;28;20158;-78
2022/11/08 09:26:31;;;;;;;4.80;1.60;;;;;;;;;;5024212;28;20505;-78
2022/11/08 09:28:58;;;;;;;6.45;1.77;;;;;;;;;;5002270;28;20061;-78
2022/11/08 09:31:25;;;;;;;4.93;1.80;;;;;;;;;;5008372;28;20085;-79
2022/11/08 09:33:51;;;;;;;5.65;1.85;;;;;;;;;;5007732;28;20069;-79
2022/11/08 09:36:17;;;;;;;4.78;1.90;;;;;;;;;;5025419;28;20057;-78
2022/11/08 09:38:44;;;;;;;6.22;1.85;;;;;;;;;;5021382;28;20056;-78
2022/11/08 09:41:26;;;;;;;4.60;1.80;;;;;;;;;;5023481;28;20767;-79
2022/11/08 09:43:55;;;;;;;6.60;1.83;;;;;;;;;;5006954;28;20050;-78
2022/11/08 09:46:40;;;;;;;5.63;1.90;;;;;;;;;;4999822;28;20501;-79
2022/11/08 09:49:12;;;;;;;5.93;1.73;;;;;;;;;;5031662;28;20508;-79
2022/11/08 09:51:39;;;;;;;5.75;1.85;;;;;;;;;;4999361;28;20056;-78
2022/11/08 09:54:10;;;;;;;6.35;1.52;;;;;;;;;;5004627;28;20061;-79
2022/11/08 09:56:44;;;;;;;6.00;1.98;;;;;;;;;;5012530;28;20061;-77
2022/11/08 09:59:14;;;;;;;4.53;1.70;;;;;;;;;;4998024;28;20061;-78
2022/11/08 10:01:41;;;;;;;5.70;1.83;;;;;;;;;;5022814;28;20551;-78
2022/11/08 10:04:11;;;;;;;10.80;1.85;;;;;;;;;;5008436;28;20049;-78
2022/11/08 10:06:56;;;;;;;4.60;1.60;;;;;;;;;;5016319;28;20065;-77
2022/11/08 10:09:28;;;;;;;3.38;1.40;;;;;;;;;;5018785;28;20081;-78
2022/11/08 10:12:13;;;;;;;4.63;1.63;;;;;;;;;;5005190;28;20528;-78
2022/11/08 10:14:47;;;;;;;4.10;1.38;;;;;;;;;;5025925;28;20057;-78
2022/11/08 10:17:19;;;;;;;7.88;2.00;;;;;;;;;;5024873;28;20819;-78
2022/11/08 10:20:01;;;;;;;4.07;1.50;;;;;;;;;;5006820;28;20053;-78
2022/11/08 10:22:32;;;;;;;5.03;1.50;;;;;;;;;;5031413;28;20294;-79
2022/11/08 10:25:00;;;;;;;5.78;1.80;;;;;;;;;;5045976;28;20069;-78
2022/11/08 10:27:31;;;;;;;6.30;2.28;;;;;;;;;;5034418;28;20140;-78
2022/11/08 10:30:00;;;;;;;4.10;1.52;;;;;;;;;;5002940;28;20062;-78
2022/11/08 10:32:27;;;;;;;5.53;1.70;;;;;;;;;;5007597;28;20050;-78
2022/11/08 10:35:03;;;;;;;4.75;1.80;;;;;;;;;;4988629;28;20050;-78
2022/11/08 10:37:30;;;;;;;4.40;1.60;;;;;;;;;;4996459;28;20062;-78
2022/11/08 10:40:04;;;;;;;3.78;1.30;;;;;;;;;;5008476;28;20339;-78
2022/11/08 10:42:37;;;;;;;7.20;1.90;;;;;;;;;;5008296;28;20471;-77
2022/11/08 10:45:03;;;;;;;7.45;1.90;;;;;;;;;;5022418;28;20058;-78
2022/11/08 10:47:31;;;;;;;7.07;1.73;;;;;;;;;;5025885;28;20065;-78
2022/11/08 10:49:57;;;;;;;3.92;1.52;;;;;;;;;;5021527;28;20061;-78
2022/11/08 10:52:30;;;;;;;4.30;1.80;;;;;;;;;;5020361;28;20054;-78
2022/11/08 10:54:58;;;;;;;7.60;2.00;;;;;;;;;;5002608;28;20045;-77
2022/11/08 10:57:34;;;;;;;5.57;1.67;;;;;;;;;;5025129;28;20397;-78
2022/11/08 11:00:19;;;;;;;5.55;1.73;;;;;;;;;;5005869;28;20045;-78
2022/11/08 11:02:48;;;;;;;6.28;1.63;;;;;;;;;;5005287;28;20058;-78
2022/11/08 11:05:15;;;;;;;4.45;1.65;;;;;;;;;;5004531;28;20133;-78
2022/11/08 11:07:45;;;;;;;7.40;1.92;;;;;;;;;;5002674;28;20054;-78
2022/11/08 11:10:19;;;;;;;7.07;1.80;;;;;;;;;;5004086;28;20057;-78
2022/11/08 11:12:48;;;;;;;8.48;1.83;;;;;;;;;;5006849;28;20108;-78
2022/11/08 11:15:15;;;;;;;5.72;2.00;;;;;;;;;;5021207;28;20515;-78
2022/11/08 11:17:43;;;;;;;4.72;1.40;;;;;;;;;;5022686;28;20049;-78
2022/11/08 11:20:21;;;;;;;5.28;1.67;;;;;;;;;;5022835;28;20058;-78
2022/11/08 11:22:47;;;;;;;8.73;1.73;;;;;;;;;;5019312;28;20057;-78
2022/11/08 11:25:18;;;;;;;5.53;1.45;;;;;;;;;;5023620;28;20509;-78
2022/11/08 11:27:48;;;;;;;4.97;1.77;;;;;;;;;;5006929;28;20058;-78
2022/11/08 11:30:17;;;;;;;5.40;1.83;;;;;;;;;;5004044;28;20061;-78
2022/11/08 11:32:53;;;;;;;5.25;1.67;;;;;;;;;;4987629;28;20050;-78
2022/11/08 11:35:20;;;;;;;6.03;1.63;;;;;;;;;;4987333;28;20058;-78
2022/11/08 11:37:47;;;;;;;4.47;1.58;;;;;;;;;;4987307;28;20054;-78
2022/11/08 11:40:33;;;;;;;7.15;1.60;;;;;;;;;;4990915;28;20784;-78
2022/11/08 11:43:00;;;;;;;6.32;1.63;;;;;;;;;;5002713;28;20085;-78
2022/11/08 11:45:39;;;;;;;5.05;1.42;;;;;;;;;;5003947;28;20058;-78
2022/11/08 11:48:16;;;;;;;4.90;1.63;;;;;;;;;;5002457;28;20042;-78
2022/11/08 11:50:46;;;;;;;5.10;1.80;;;;;;;;;;5013506;28;20567;-77
2022/11/08 11:53:26;;;;;;;5.90;1.60;;;;;;;;;;5002898;28;20205;-79
2022/11/08 11:55:53;;;;;;;5.35;1.90;;;;;;;;;;5005130;28;20050;-78
2022/11/08 11:58:25;;;;;;;4.45;1.45;;;;;;;;;;5005793;28;20448;-78
2022/11/08 12:01:14;;;;;;;5.88;1.70;;;;;;;;;;5006863;28;20050;-78
2022/11/08 12:03:48;;;;;;;4.18;1.42;;;;;;;;;;5022283;28;20061;-78
2022/11/08 12:06:14;;;;;;;6.43;1.67;;;;;;;;;;5004518;28;20062;-78
2022/11/08 12:08:58;;;;;;;5.43;1.48;;;;;;;;;;5023843;28;20054;-78
2022/11/08 12:11:31;;;;;;;5.15;1.40;;;;;;;;;;5003313;28;20089;-78
2022/11/08 12:14:00;;;;;;;4.65;1.50;;;;;;;;;;5002071;28;20109;-78
2022/11/08 12:16:29;;;;;;;4.20;1.55;;;;;;;;;;5003479;28;20065;-78
2022/11/08 12:18:59;;;;;;;6.53;1.40;;;;;;;;;;5006448;28;20054;-78
2022/11/08 12:21:32;;;;;;;6.35;1.30;;;;;;;;;;5013496;28;20058;-77
2022/11/08 12:24:04;;;;;;;4.60;1.42;;;;;;;;;;5026231;28;20057;-78
2022/11/08 12:26:43;;;;;;;4.18;1.48;;;;;;;;;;5020815;28;20857;-77
2022/11/08 12:29:12;;;;;;;5.47;1.35;;;;;;;;;;5011044;28;20065;-78
2022/11/08 12:31:46;;;;;;;5.10;1.58;;;;;;;;;;5023897;28;20058;-77
2022/11/08 12:34:18;;;;;;;5.32;1.50;;;;;;;;;;5019879;28;20054;-78
2022/11/08 12:37:03;;;;;;;4.50;1.58;;;;;;;;;;5023911;28;20064;-78
2022/11/08 12:39:33;;;;;;;4.75;1.25;;;;;;;;;;5006502;28;20054;-78
2022/11/08 12:42:05;;;;;;;4.78;1.63;;;;;;;;;;5021754;28;20046;-77
2022/11/08 12:44:49;;;;;;;5.57;1.65;;;;;;;;;;5006183;28;20058;-77
2022/11/08 12:47:36;;;;;;;5.07;1.65;;;;;;;;;;5006652;28;20069;-78
2022/11/08 12:50:11;;;;;;;3.72;1.42;;;;;;;;;;4986264;28;20689;-77
2022/11/08 12:52:55;;;;;;;7.00;1.50;;;;;;;;;;5004597;28;20058;-78
2022/11/08 12:55:23;;;;;;;5.90;1.60;;;;;;;;;;5012863;28;20057;-77
2022/11/08 12:57:53;;;;;;;4.75;1.63;;;;;;;;;;5043339;28;20060;-77
2022/11/08 13:00:20;;;;;;;5.22;1.70;;;;;;;;;;5043137;28;20068;-78
2022/11/08 13:02:56;;;;;;;7.57;1.60;;;;;;;;;;5043654;28;20049;-78
2022/11/08 13:05:22;;;;;;;6.10;1.73;;;;;;;;;;5004327;28;20053;-78
2022/11/08 13:07:48;;;;;;;7.45;1.90;;;;;;;;;;5018583;28;20054;-78
2022/11/08 13:10:23;;;;;;;10.38;1.65;;;;;;;;;;4985935;28;20057;-78
2022/11/08 13:12:53;;;;;;;6.13;1.50;;;;;;;;;;5013850;28;20054;-78
2022/11/08 13:15:24;;;;;;;6.03;1.85;;;;;;;;;;5005788;28;20870;-78
2022/11/08 13:18:05;;;;;;;5.43;1.55;;;;;;;;;;5002601;28;20046;-78
2022/11/08 13:20:37;;;;;;;4.25;1.50;;;;;;;;;;5008026;28;20061;-77
2022/11/08 13:23:14;;;;;;;6.15;1.75;;;;;;;;;;5014050;28;20054;-77
2022/11/08 13:25:41;;;;;;;4.95;1.67;;;;;;;;;;5011905;28;20054;-78
2022/11/08 13:28:26;;;;;;;7.15;1.38;;;;;;;;;;4998690;28;20547;-78
2022/11/08 13:30:59;;;;;;;7.15;1.70;;;;;;;;;;5004792;28;20054;-78
2022/11/08 13:33:28;;;;;;;6.60;1.73;;;;;;;;;;4994585;28;20587;-77
2022/11/08 13:35:57;;;;;;;6.97;2.10;;;;;;;;;;4998052;28;20069;-77
2022/11/08 13:38:47;;;;;;;5.22;1.48;;;;;;;;;;5000905;28;20058;-77
2022/11/08 13:41:17;;;;;;;5.05;1.70;;;;;;;;;;4993013;28;20798;-78
2022/11/08 13:43:44;;;;;;;6.28;1.42;;;;;;;;;;5018395;28;20049;-77
2022/11/08 13:46:26;;;;;;;5.50;1.75;;;;;;;;;;5021197;28;20073;-78
2022/11/08 13:49:04;;;;;;;5.85;1.70;;;;;;;;;;5016567;28;20060;-78
2022/11/08 13:51:37;;;;;;;5.90;2.10;;;;;;;;;;5020546;28;20054;-78
2022/11/08 13:54:27;;;;;;;3.97;1.75;;;;;;;;;;5006258;28;20054;-77
2022/11/08 13:56:54;;;;;;;5.80;1.80;;;;;;;;;;5007174;28;20069;-78
2022/11/08 13:59:29;;;;;;;7.03;2.10;;;;;;;;;;5025705;28;20060;-77
2022/11/08 14:02:04;;;;;;;6.55;1.70;;;;;;;;;;5019158;28;20137;-77
2022/11/08 14:04:37;;;;;;;4.40;1.80;;;;;;;;;;4998341;28;20073;-77
2022/11/08 14:07:11;;;;;;;7.88;1.80;;;;;;;;;;5025256;28;20096;-78
2022/11/08 14:09:41;;;;;;;5.00;1.60;;;;;;;;;;5020034;28;20089;-78
2022/11/08 14:12:07;;;;;;;5.75;1.60;;;;;;;;;;5005425;28;20762;-78
2022/11/08 14:14:49;;;;;;;5.70;1.90;;;;;;;;;;5020722;28;20054;-77
2022/11/08 14:17:34;;;;;;;4.72;1.38;;;;;;;;;;5007007;28;20049;-78
2022/11/08 14:20:16;;;;;;;6.70;1.50;;;;;;;;;;4999114;28;20053;-77
2022/11/08 14:22:43;;;;;;;5.68;1.40;;;;;;;;;;5010778;28;20058;-77
2022/11/08 14:25:25;;;;;;;9.52;1.65;;;;;;;;;;5022400;28;20097;-76
2022/11/08 14:27:52;;;;;;;3.85;1.35;;;;;;;;;;5000843;28;20053;-77
2022/11/08 14:30:19;;;;;;;5.65;1.42;;;;;;;;;;5019910;28;20058;-77
2022/11/08 14:32:46;;;;;;;8.93;1.83;;;;;;;;;;5002148;28;20467;-78
2022/11/08 14:35:24;;;;;;;6.13;1.63;;;;;;;;;;5005287;28;21251;-78
2022/11/08 14:37:51;;;;;;;7.55;1.90;;;;;;;;;;5008223;28;20057;-78
2022/11/08 14:40:19;;;;;;;7.07;1.77;;;;;;;;;;5020716;28;20679;-78
2022/11/08 14:42:46;;;;;;;10.60;1.90;;;;;;;;;;5016056;28;20061;-77
2022/11/08 14:45:13;;;;;;;5.78;1.45;;;;;;;;;;5016317;28;20540;-78
2022/11/08 14:47:41;;;;;;;6.47;1.52;;;;;;;;;;5007672;28;20042;-77
2022/11/08 14:50:18;;;;;;;6.88;1.83;;;;;;;;;;5036197;28;20060;-77
2022/11/08 14:52:44;;;;;;;5.18;1.60;;;;;;;;;;5022695;28;20565;-77
2022/11/08 14:55:12;;;;;;;4.07;1.52;;;;;;;;;;5020024;28;20061;-78
2022/11/08 14:57:39;;;;;;;4.45;1.52;;;;;;;;;;5007124;28;20054;-77
2022/11/08 15:00:05;;;;;;;5.60;1.55;;;;;;;;;;5006781;28;20154;-78
2022/11/08 15:02:32;;;;;;;7.28;1.60;;;;;;;;;;5014744;28;20057;-77
2022/11/08 15:04:58;;;;;;;4.80;1.50;;;;;;;;;;5008046;28;20062;-77
2022/11/08 15:07:25;;;;;;;5.80;1.70;;;;;;;;;;5009807;28;20049;-78
2022/11/08 15:09:52;;;;;;;8.02;1.92;;;;;;;;;;5012116;28;20058;-77
2022/11/08 15:12:20;;;;;;;3.72;1.40;;;;;;;;;;5003255;28;20568;-78